Hays, KS

7:41 AM CDT on July 22, 2017 (GMT -0500)
Hays Regional

Weather History for KHYS - October, 2011

Change the Weather History Date:

Sunday, October 23, 2011

  Actual Average Record
Temperature  
Mean Temperature 56 °F -  
Max Temperature 77 °F 63 °F 84 °F (2003)
Min Temperature 35 °F 39 °F 24 °F (2006)
Degree Days  
Heating Degree Days 9    
Growing Degree Days 6 (Base 50)    
Moisture  
Dew Point 38 °F    
Average Humidity 57    
Maximum Humidity 93    
Minimum Humidity 21    
Precipitation  
Precipitation 0.00 in - - ()
Sea Level Pressure  
Sea Level Pressure 30.04 in    
Wind  
Wind Speed 7 mph (WNW)    
Max Wind Speed 21 mph    
Max Gust Speed 24 mph    
Visibility 10 miles    
Events      
Averages and records for this station are not official NWS values.
T = Trace of Precipitation, MM = Missing Value Source: NWS Daily Summary

Daily Weather History Graph

Daily Weather History Graph

Search for Another Location

Airport or City:

Trip Planner

Search our weather history database for the weather conditions in past years. The results will help you decide how hot, cold, wet, or windy it might be!

Date:

Astronomy

Oct. 23, 2011 Rise Set
Actual Time 7:54 AM CDT 6:47 PM CDT
Civil Twilight 7:27 AM CDT 7:15 PM CDT
Nautical Twilight 6:56 AM CDT 7:46 PM CDT
Astronomical Twilight 6:25 AM CDT 8:16 PM CDT
Moon 4:05 AM CDT (10/23) 4:38 PM CDT (10/23)
Length of Visible Light 11h 47m
Length of Day
10h 53m
Waning Crescent, 14% of the Moon is Illuminated
Oct 23
Waning Crescent
Oct 26
New
Nov 2
First Quarter
Nov 10
Full
Nov 18
Last Quarter

Hourly Weather History & Observations

Time (CDT) Temp. Windchill Dew Point Humidity Pressure Visibility Wind Dir Wind Speed Gust Speed Precip Events Conditions
12:15 AM 42.8 °F 40.1 °F 35.6 °F 76% 30.04 in 10.0 mi West 4.6 mph - N/A   Clear
12:35 AM 44.6 °F 40.7 °F 39.2 °F 81% 30.04 in 10.0 mi NW 6.9 mph - N/A   Clear
12:55 AM 46.4 °F 42.9 °F 39.2 °F 76% 30.04 in 10.0 mi NW 6.9 mph - N/A   Clear
1:15 AM 46.4 °F 42.9 °F 39.2 °F 76% 30.03 in 10.0 mi NW 6.9 mph - N/A   Clear
1:35 AM 46.4 °F 42.4 °F 39.2 °F 76% 30.03 in 10.0 mi NW 8.1 mph - N/A   Clear
1:55 AM 44.6 °F 40.2 °F 39.2 °F 81% 30.03 in 10.0 mi NNW 8.1 mph - N/A   Clear
2:35 AM 44.6 °F 40.7 °F 39.2 °F 81% 30.03 in 10.0 mi NW 6.9 mph - N/A   Clear
2:55 AM 44.6 °F 42.2 °F 37.4 °F 76% 30.03 in 10.0 mi NW 4.6 mph - N/A   Clear
3:15 AM 39.2 °F 37.0 °F 35.6 °F 87% 30.04 in 10.0 mi SE 3.5 mph - N/A   Clear
3:35 AM 39.2 °F 35.0 °F 35.6 °F 87% 30.03 in 10.0 mi South 5.8 mph - N/A   Clear
3:55 AM 39.2 °F 35.9 °F 35.6 °F 87% 30.03 in 10.0 mi South 4.6 mph - N/A   Clear
4:15 AM 39.2 °F 35.9 °F 35.6 °F 87% 30.03 in 10.0 mi WSW 4.6 mph - N/A   Clear
4:35 AM 39.2 °F 37.0 °F 35.6 °F 87% 30.02 in 10.0 mi SW 3.5 mph - N/A   Clear
5:35 AM 39.2 °F 37.0 °F 35.6 °F 87% 30.03 in 10.0 mi West 3.5 mph - N/A   Clear
5:55 AM 37.4 °F 32.8 °F 35.6 °F 93% 30.03 in 10.0 mi West 5.8 mph - N/A   Clear
6:15 AM 37.4 °F 33.8 °F 33.8 °F 87% 30.03 in 10.0 mi West 4.6 mph - N/A   Clear
6:35 AM 37.4 °F - 33.8 °F 87% 30.03 in 10.0 mi Calm Calm - N/A   Clear
6:55 AM 37.4 °F 34.9 °F 33.8 °F 87% 30.03 in 10.0 mi WNW 3.5 mph - N/A   Clear
7:15 AM 35.6 °F 32.8 °F 33.8 °F 93% 30.03 in 10.0 mi West 3.5 mph - N/A   Clear
7:35 AM 35.6 °F 32.8 °F 33.8 °F 93% 30.03 in 10.0 mi WNW 3.5 mph - N/A   Clear
7:55 AM 37.4 °F 32.1 °F 33.8 °F 87% 30.03 in 10.0 mi NW 6.9 mph - N/A   Clear
8:15 AM 37.4 °F 32.8 °F 33.8 °F 87% 30.04 in 10.0 mi WNW 5.8 mph - N/A   Clear
8:35 AM 37.4 °F 33.8 °F 35.6 °F 93% 30.04 in 10.0 mi WNW 4.6 mph - N/A   Clear
8:55 AM 39.2 °F 37.0 °F 37.4 °F 93% 30.05 in 10.0 mi West 3.5 mph - N/A   Clear
9:15 AM 44.6 °F 42.2 °F 39.2 °F 81% 30.05 in 10.0 mi West 4.6 mph - N/A   Clear
9:55 AM 50.0 °F - 42.8 °F 76% 30.06 in 10.0 mi WSW 4.6 mph - N/A   Clear
10:15 AM 53.6 °F - 44.6 °F 72% 30.05 in 10.0 mi SW 4.6 mph - N/A   Clear
10:35 AM 57.2 °F - 46.4 °F 67% 30.06 in 10.0 mi West 4.6 mph - N/A   Clear
10:55 AM 60.8 °F - 46.4 °F 59% 30.06 in 10.0 mi WSW 3.5 mph - N/A   Clear
11:15 AM 64.4 °F - 44.6 °F 49% 30.06 in 10.0 mi West 5.8 mph - N/A   Clear
11:55 AM 66.2 °F - 42.8 °F 43% 30.06 in 10.0 mi West 13.8 mph - N/A   Clear
12:15 PM 68.0 °F - 42.8 °F 40% 30.06 in 10.0 mi West 11.5 mph - N/A   Clear
12:35 PM 71.6 °F - 42.8 °F 35% 30.05 in 10.0 mi West 12.7 mph 17.3 mph N/A   Clear
12:55 PM 73.4 °F - 42.8 °F 33% 30.04 in 10.0 mi West 11.5 mph - N/A   Clear
1:15 PM 75.2 °F - 42.8 °F 31% 30.03 in 10.0 mi WSW 11.5 mph - N/A   Clear
1:35 PM 75.2 °F - 41.0 °F 29% 30.02 in 10.0 mi West 12.7 mph - N/A   Clear
1:55 PM 75.2 °F - 42.8 °F 31% 30.01 in 10.0 mi West 13.8 mph 17.3 mph N/A   Clear
2:15 PM 77.0 °F - 41.0 °F 28% 30.01 in 10.0 mi West 10.4 mph - N/A   Clear
2:35 PM 77.0 °F - 37.4 °F 24% 30.01 in 10.0 mi NW 16.1 mph 21.9 mph N/A   Clear
2:55 PM 77.0 °F - 37.4 °F 24% 30.01 in 10.0 mi WNW 20.7 mph 24.2 mph N/A   Clear
3:15 PM 77.0 °F - 35.6 °F 22% 30.00 in 10.0 mi NW 15.0 mph - N/A   Clear
3:35 PM 77.0 °F - 35.6 °F 22% 30.00 in 10.0 mi NW 15.0 mph 19.6 mph N/A   Clear
3:55 PM 77.0 °F - 35.6 °F 22% 30.00 in 10.0 mi NW 15.0 mph 19.6 mph N/A   Clear
4:15 PM 77.0 °F - 33.8 °F 21% 30.01 in 10.0 mi NNW 16.1 mph - N/A   Clear
4:35 PM 77.0 °F - 33.8 °F 21% 30.01 in 10.0 mi NNW 13.8 mph - N/A   Clear
4:55 PM 77.0 °F - 35.6 °F 22% 30.01 in 10.0 mi NNW 15.0 mph - N/A   Clear
5:15 PM 75.2 °F - 35.6 °F 24% 30.01 in 10.0 mi NNW 12.7 mph 16.1 mph N/A   Clear
5:35 PM 75.2 °F - 33.8 °F 22% 30.02 in 10.0 mi NNW 8.1 mph - N/A   Clear
5:55 PM 75.2 °F - 35.6 °F 24% 30.02 in 10.0 mi NW 9.2 mph - N/A   Clear
6:15 PM 73.4 °F - 35.6 °F 25% 30.03 in 10.0 mi NNW 5.8 mph - N/A   Clear
6:55 PM 69.8 °F - 35.6 °F 28% 30.04 in 10.0 mi NNW 5.8 mph - N/A   Clear
7:15 PM 68.0 °F - 33.8 °F 28% 30.04 in 10.0 mi North 5.8 mph - N/A   Clear
7:35 PM 60.8 °F - 35.6 °F 39% 30.05 in 10.0 mi NNW 3.5 mph - N/A   Clear
7:55 PM 59.0 °F - 35.6 °F 42% 30.06 in 9.0 mi NW 3.5 mph - N/A   Clear
8:15 PM 55.4 °F - 35.6 °F 47% 30.06 in 10.0 mi West 5.8 mph - N/A   Clear
8:35 PM 55.4 °F - 35.6 °F 47% 30.06 in 10.0 mi Calm Calm - N/A   Clear
9:15 PM 55.4 °F - 35.6 °F 47% 30.07 in 10.0 mi West 3.5 mph - N/A   Clear
9:35 PM 53.6 °F - 35.6 °F 51% 30.08 in 10.0 mi West 4.6 mph - N/A   Clear
9:55 PM 50.0 °F - 35.6 °F 58% 30.09 in 10.0 mi Calm Calm - N/A   Clear
10:35 PM 46.4 °F - 35.6 °F 66% 30.09 in 10.0 mi Calm Calm - N/A   Clear
10:55 PM 48.2 °F - 35.6 °F 62% 30.09 in 10.0 mi SW 3.5 mph - N/A   Clear
11:15 PM 51.8 °F - 35.6 °F 54% 30.09 in 10.0 mi West 5.8 mph - N/A   Clear
11:35 PM 48.2 °F - 35.6 °F 62% 30.09 in 10.0 mi West 3.5 mph - N/A   Clear
11:55 PM 48.2 °F - 35.6 °F 62% 30.09 in 10.0 mi West 3.5 mph - N/A   Clear